createdAt,value
2023-01-21T00:01:14.786Z,101275.00
2023-01-21T00:03:42.618Z,101274.00
2023-01-21T00:06:10.730Z,101272.00
2023-01-21T00:08:38.430Z,101271.00
2023-01-21T00:11:09.867Z,101274.00
2023-01-21T00:13:37.717Z,101283.00
2023-01-21T00:16:05.521Z,101279.00
2023-01-21T00:18:33.495Z,101295.00
2023-01-21T00:21:01.451Z,101292.00
2023-01-21T00:23:29.404Z,101297.00
2023-01-21T00:26:00.787Z,101296.00
2023-01-21T00:28:31.658Z,101301.00
2023-01-21T00:31:00.154Z,101298.00
2023-01-21T00:33:28.220Z,101306.00
2023-01-21T00:35:59.939Z,101311.00
2023-01-21T00:38:27.865Z,101306.00
2023-01-21T00:41:01.478Z,101320.00
2023-01-21T00:43:29.174Z,101312.00
2023-01-21T00:45:59.007Z,101311.00
2023-01-21T00:48:28.744Z,101314.00
2023-01-21T00:50:59.371Z,101334.00
2023-01-21T00:53:27.806Z,101329.00
2023-01-21T00:55:58.897Z,101331.00
2023-01-21T00:58:26.842Z,101334.00
2023-01-21T01:01:04.433Z,101339.00
2023-01-21T01:03:32.828Z,101343.00
2023-01-21T01:06:04.740Z,101349.00
2023-01-21T01:08:32.505Z,101360.00
2023-01-21T01:11:00.548Z,101365.00
2023-01-21T01:13:28.445Z,101371.00
2023-01-21T01:15:57.812Z,101361.00
2023-01-21T01:18:25.860Z,101362.00
2023-01-21T01:20:53.402Z,101368.00
2023-01-21T01:23:21.159Z,101367.00
2023-01-21T01:26:04.443Z,101369.00
2023-01-21T01:28:32.280Z,101378.00
2023-01-21T01:31:00.837Z,101372.00
2023-01-21T01:33:28.693Z,101384.00
2023-01-21T01:35:59.290Z,101374.00
2023-01-21T01:38:27.142Z,101385.00
2023-01-21T01:40:54.810Z,101393.00
2023-01-21T01:43:24.374Z,101392.00
2023-01-21T01:45:52.452Z,101403.00
2023-01-21T01:48:30.243Z,101400.00
2023-01-21T01:50:58.502Z,101406.00
2023-01-21T01:53:26.405Z,101411.00
2023-01-21T01:55:54.039Z,101412.00
2023-01-21T01:58:21.791Z,101407.00
2023-01-21T02:00:49.752Z,101416.00
2023-01-21T02:03:36.132Z,101421.00
2023-01-21T02:06:03.960Z,101423.00
2023-01-21T02:08:33.080Z,101417.00
2023-01-21T02:11:01.184Z,101421.00
2023-01-21T02:13:29.644Z,101426.00
2023-01-21T02:16:10.931Z,101426.00
2023-01-21T02:18:47.895Z,101428.00
2023-01-21T02:21:36.639Z,101429.00
2023-01-21T02:24:22.944Z,101424.00
2023-01-21T02:26:56.910Z,101433.00
2023-01-21T02:29:35.644Z,101438.00
2023-01-21T02:32:12.671Z,101449.00
2023-01-21T02:34:43.575Z,101453.00
2023-01-21T02:37:13.317Z,101449.00
2023-01-21T02:39:41.012Z,101458.00
2023-01-21T02:42:23.988Z,101456.00
2023-01-21T02:44:58.459Z,101455.00
2023-01-21T02:47:27.300Z,101461.00
2023-01-21T02:49:56.965Z,101456.00
2023-01-21T02:52:25.025Z,101450.00
2023-01-21T02:54:56.712Z,101468.00
2023-01-21T02:57:43.669Z,101469.00
2023-01-21T03:00:16.896Z,101473.00
2023-01-21T03:02:50.596Z,101489.00
2023-01-21T03:05:30.681Z,101477.00
2023-01-21T03:08:19.719Z,101481.00
2023-01-21T03:11:00.277Z,101486.00
2023-01-21T03:13:46.663Z,101480.00
2023-01-21T03:16:32.950Z,101493.00
2023-01-21T03:19:00.888Z,101502.00
2023-01-21T03:21:28.597Z,101498.00
2023-01-21T03:23:56.334Z,101501.00
2023-01-21T03:26:26.416Z,101494.00
2023-01-21T03:28:54.873Z,101502.00
2023-01-21T03:31:26.377Z,101506.00
2023-01-21T03:33:54.998Z,101508.00
2023-01-21T03:36:41.395Z,101502.00
2023-01-21T03:39:16.588Z,101503.00
2023-01-21T03:41:44.181Z,101505.00
2023-01-21T03:44:11.997Z,101506.00
2023-01-21T03:46:41.469Z,101504.00
2023-01-21T03:49:16.933Z,101512.00
2023-01-21T03:51:54.352Z,101507.00
2023-01-21T03:54:22.351Z,101510.00
2023-01-21T03:56:50.143Z,101513.00
2023-01-21T03:59:17.897Z,101514.00
2023-01-21T04:01:45.557Z,101517.00
2023-01-21T04:04:13.455Z,101523.00
2023-01-21T04:06:41.104Z,101519.00
2023-01-21T04:09:09.779Z,101521.00
2023-01-21T04:11:37.522Z,101519.00
2023-01-21T04:14:05.312Z,101523.00
2023-01-21T04:16:33.100Z,101519.00
2023-01-21T04:19:00.959Z,101518.00
2023-01-21T04:21:28.685Z,101525.00
2023-01-21T04:23:56.429Z,101518.00
2023-01-21T04:26:24.185Z,101531.00
2023-01-21T04:28:51.906Z,101530.00
2023-01-21T04:31:19.525Z,101534.00
2023-01-21T04:33:47.411Z,101522.00
2023-01-21T04:36:15.211Z,101519.00
2023-01-21T04:38:43.160Z,101523.00
2023-01-21T04:41:10.850Z,101531.00
2023-01-21T04:43:38.633Z,101532.00
2023-01-21T04:46:06.349Z,101531.00
2023-01-21T04:48:33.957Z,101537.00
2023-01-21T04:51:01.933Z,101535.00
2023-01-21T04:53:29.675Z,101534.00
2023-01-21T04:55:57.550Z,101535.00
2023-01-21T04:58:25.281Z,101529.00
2023-01-21T05:00:54.054Z,101539.00
2023-01-21T05:03:21.892Z,101534.00
2023-01-21T05:05:49.459Z,101536.00
2023-01-21T05:08:17.205Z,101533.00
2023-01-21T05:10:47.325Z,101536.00
2023-01-21T05:13:14.993Z,101548.00
2023-01-21T05:15:42.964Z,101548.00
2023-01-21T05:18:10.928Z,101554.00
2023-01-21T05:20:38.605Z,101548.00
2023-01-21T05:23:06.332Z,101556.00
2023-01-21T05:25:34.268Z,101555.00
2023-01-21T05:28:02.177Z,101559.00
2023-01-21T05:30:30.043Z,101562.00
2023-01-21T05:32:57.810Z,101554.00
2023-01-21T05:35:25.450Z,101564.00
2023-01-21T05:37:53.275Z,101563.00
2023-01-21T05:40:21.176Z,101573.00
2023-01-21T05:42:49.477Z,101572.00
2023-01-21T05:45:19.998Z,101586.00
2023-01-21T05:47:47.791Z,101583.00
2023-01-21T05:50:15.712Z,101585.00
2023-01-21T05:52:43.561Z,101588.00
2023-01-21T05:55:11.120Z,101582.00
2023-01-21T05:57:38.694Z,101592.00
2023-01-21T06:00:06.657Z,101594.00
2023-01-21T06:02:34.330Z,101601.00
2023-01-21T06:05:02.060Z,101607.00
2023-01-21T06:07:29.832Z,101612.00
2023-01-21T06:09:57.430Z,101608.00
2023-01-21T06:12:25.079Z,101606.00
2023-01-21T06:14:52.737Z,101623.00
2023-01-21T06:17:20.315Z,101620.00
2023-01-21T06:19:47.944Z,101616.00
2023-01-21T06:22:16.226Z,101612.00
2023-01-21T06:24:44.209Z,101622.00
2023-01-21T06:27:12.330Z,101626.00
2023-01-21T06:29:39.937Z,101627.00
2023-01-21T06:32:07.814Z,101628.00
2023-01-21T06:34:35.666Z,101638.00
2023-01-21T06:37:03.322Z,101641.00
2023-01-21T06:39:30.953Z,101651.00
2023-01-21T06:41:58.587Z,101651.00
2023-01-21T06:44:26.332Z,101656.00
2023-01-21T06:47:00.757Z,101663.00
2023-01-21T06:49:28.985Z,101672.00
2023-01-21T06:51:56.734Z,101665.00
2023-01-21T06:54:24.428Z,101661.00
2023-01-21T06:56:52.063Z,101672.00
2023-01-21T06:59:19.841Z,101674.00
2023-01-21T07:01:47.456Z,101682.00
2023-01-21T07:04:15.085Z,101682.00
2023-01-21T07:06:42.844Z,101678.00
2023-01-21T07:09:11.491Z,101686.00
2023-01-21T07:11:39.168Z,101679.00
2023-01-21T07:14:06.778Z,101691.00
2023-01-21T07:16:35.876Z,101688.00
2023-01-21T07:19:03.490Z,101699.00
2023-01-21T07:21:31.149Z,101696.00
2023-01-21T07:23:58.974Z,101707.00
2023-01-21T07:26:26.766Z,101700.00
2023-01-21T07:28:54.366Z,101699.00
2023-01-21T07:31:22.172Z,101703.00
2023-01-21T07:33:49.997Z,101703.00
2023-01-21T07:36:17.999Z,101710.00
2023-01-21T07:38:45.809Z,101704.00
2023-01-21T07:41:13.413Z,101709.00
2023-01-21T07:43:41.200Z,101719.00
2023-01-21T07:46:09.182Z,101714.00
2023-01-21T07:48:36.892Z,101715.00
2023-01-21T07:51:04.744Z,101710.00
2023-01-21T07:53:32.507Z,101721.00
2023-01-21T07:56:04.098Z,101720.00
2023-01-21T07:58:31.714Z,101712.00
2023-01-21T08:00:59.654Z,101715.00
2023-01-21T08:03:27.359Z,101717.00
2023-01-21T08:05:55.136Z,101715.00
2023-01-21T08:08:22.939Z,101722.00
2023-01-21T08:10:54.287Z,101722.00
2023-01-21T08:13:22.026Z,101721.00
2023-01-21T08:15:50.577Z,101723.00
2023-01-21T08:18:18.444Z,101720.00
2023-01-21T08:20:46.268Z,101717.00
2023-01-21T08:23:14.238Z,101728.00
2023-01-21T08:25:44.286Z,101722.00
2023-01-21T08:28:12.090Z,101731.00
2023-01-21T08:30:39.916Z,101718.00
2023-01-21T08:33:07.910Z,101712.00
2023-01-21T08:35:35.521Z,101716.00
2023-01-21T08:38:03.196Z,101712.00
2023-01-21T08:40:30.914Z,101722.00
2023-01-21T08:42:59.757Z,101724.00
2023-01-21T08:45:28.091Z,101708.00
2023-01-21T08:47:55.857Z,101706.00
2023-01-21T08:50:25.816Z,101705.00
2023-01-21T08:52:53.971Z,101712.00
2023-01-21T08:55:22.368Z,101712.00
2023-01-21T08:57:52.264Z,101707.00
2023-01-21T09:00:20.184Z,101706.00
2023-01-21T09:02:49.551Z,101712.00
2023-01-21T09:05:18.873Z,101707.00
2023-01-21T09:07:46.696Z,101710.00
2023-01-21T09:10:34.529Z,101709.00
2023-01-21T09:13:06.033Z,101717.00
2023-01-21T09:15:43.308Z,101729.00
2023-01-21T09:18:11.108Z,101731.00
2023-01-21T09:20:39.812Z,101729.00
2023-01-21T09:23:24.538Z,101733.00
2023-01-21T09:26:02.857Z,101738.00
2023-01-21T09:28:30.687Z,101735.00
2023-01-21T09:31:00.210Z,101736.00
2023-01-21T09:33:28.307Z,101732.00
2023-01-21T09:35:56.000Z,101744.00
2023-01-21T09:38:23.955Z,101730.00
2023-01-21T09:40:51.602Z,101733.00
2023-01-21T09:43:29.535Z,101737.00
2023-01-21T09:45:58.194Z,101745.00
2023-01-21T09:48:30.335Z,101755.00
2023-01-21T09:50:58.299Z,101754.00
2023-01-21T09:53:43.812Z,101748.00
2023-01-21T09:56:18.341Z,101751.00
2023-01-21T09:58:48.390Z,101752.00
2023-01-21T10:01:19.201Z,101761.00
2023-01-21T10:03:57.099Z,101760.00
2023-01-21T10:06:44.001Z,101763.00
2023-01-21T10:09:30.063Z,101767.00
2023-01-21T10:12:00.432Z,101755.00
2023-01-21T10:14:46.556Z,101756.00
2023-01-21T10:17:22.276Z,101754.00
2023-01-21T10:20:12.604Z,101764.00
2023-01-21T10:22:40.574Z,101762.00
2023-01-21T10:25:14.148Z,101761.00
2023-01-21T10:27:41.837Z,101757.00
2023-01-21T10:30:20.750Z,101765.00
2023-01-21T10:32:49.508Z,101775.00
2023-01-21T10:35:21.851Z,101780.00
2023-01-21T10:37:55.741Z,101773.00
2023-01-21T10:40:42.989Z,101773.00
2023-01-21T10:43:29.471Z,101774.00
2023-01-21T10:46:06.489Z,101776.00
2023-01-21T10:48:40.292Z,101773.00
2023-01-21T10:51:11.370Z,101782.00
2023-01-21T10:53:40.547Z,101784.00
2023-01-21T10:56:29.874Z,101783.00
2023-01-21T10:59:07.127Z,101781.00
2023-01-21T11:01:36.020Z,101776.00
2023-01-21T11:04:29.074Z,101772.00
2023-01-21T11:07:00.055Z,101768.00
2023-01-21T11:09:31.629Z,101753.00
2023-01-21T11:12:00.618Z,101766.00
2023-01-21T11:14:28.420Z,101763.00
2023-01-21T11:16:56.266Z,101761.00
2023-01-21T11:19:26.394Z,101758.00
2023-01-21T11:22:01.463Z,101758.00
2023-01-21T11:24:29.990Z,101762.00
2023-01-21T11:26:58.947Z,101765.00
2023-01-21T11:29:26.825Z,101762.00
2023-01-21T11:32:02.274Z,101761.00
2023-01-21T11:34:30.116Z,101757.00
2023-01-21T11:36:59.187Z,101757.00
2023-01-21T11:39:27.790Z,101758.00
2023-01-21T11:41:56.005Z,101762.00
2023-01-21T11:44:23.883Z,101769.00
2023-01-21T11:46:51.543Z,101772.00
2023-01-21T11:49:23.787Z,101770.00
2023-01-21T11:51:52.801Z,101775.00
2023-01-21T11:54:20.550Z,101771.00
2023-01-21T11:56:55.998Z,101768.00
2023-01-21T11:59:26.923Z,101772.00
2023-01-21T12:01:57.134Z,101777.00
2023-01-21T12:04:24.916Z,101772.00
2023-01-21T12:06:59.688Z,101770.00
2023-01-21T12:09:28.457Z,101766.00
2023-01-21T12:12:08.917Z,101764.00
2023-01-21T12:14:40.944Z,101770.00
2023-01-21T12:17:15.755Z,101763.00
2023-01-21T12:20:04.113Z,101759.00
2023-01-21T12:23:04.174Z,101754.00
2023-01-21T12:25:43.995Z,101747.00
2023-01-21T12:28:24.210Z,101750.00
2023-01-21T12:30:55.680Z,101758.00
2023-01-21T12:33:32.621Z,101741.00
2023-01-21T12:36:01.575Z,101744.00
2023-01-21T12:38:31.146Z,101748.00
2023-01-21T12:41:03.461Z,101746.00
2023-01-21T12:43:32.642Z,101738.00
2023-01-21T12:46:15.741Z,101745.00
2023-01-21T12:49:03.615Z,101734.00
2023-01-21T12:51:38.843Z,101734.00
2023-01-21T12:54:10.693Z,101737.00
2023-01-21T12:56:40.101Z,101747.00
2023-01-21T12:59:07.790Z,101742.00
2023-01-21T13:01:38.567Z,101737.00
2023-01-21T13:04:09.013Z,101727.00
2023-01-21T13:06:53.685Z,101735.00
2023-01-21T13:09:22.198Z,101733.00
2023-01-21T13:11:50.483Z,101731.00
2023-01-21T13:14:28.797Z,101737.00
2023-01-21T13:17:01.026Z,101726.00
2023-01-21T13:19:28.785Z,101725.00
2023-01-21T13:22:18.236Z,101717.00
2023-01-21T13:24:58.409Z,101727.00
2023-01-21T13:27:29.747Z,101727.00
2023-01-21T13:29:57.500Z,101736.00
2023-01-21T13:32:47.280Z,101728.00
2023-01-21T13:35:34.001Z,101725.00
2023-01-21T13:38:07.483Z,101733.00
2023-01-21T13:40:47.947Z,101727.00
2023-01-21T13:43:34.548Z,101723.00
2023-01-21T13:46:02.508Z,101725.00
2023-01-21T13:48:49.824Z,101718.00
2023-01-21T13:51:24.943Z,101725.00
2023-01-21T13:54:04.052Z,101730.00
2023-01-21T13:56:50.246Z,101731.00
2023-01-21T13:59:32.269Z,101742.00
2023-01-21T14:02:01.885Z,101745.00
2023-01-21T14:04:32.146Z,101739.00
2023-01-21T14:07:11.119Z,101742.00
2023-01-21T14:09:50.150Z,101745.00
2023-01-21T14:12:17.711Z,101740.00
2023-01-21T14:14:51.335Z,101734.00
2023-01-21T14:17:25.294Z,101742.00
2023-01-21T14:20:11.782Z,101734.00
2023-01-21T14:22:45.741Z,101730.00
2023-01-21T14:25:46.094Z,101728.00
2023-01-21T14:28:16.592Z,101737.00
2023-01-21T14:30:48.618Z,101742.00
2023-01-21T14:33:24.024Z,101733.00
2023-01-21T14:35:52.055Z,101727.00
2023-01-21T14:38:29.128Z,101724.00
2023-01-21T14:41:04.157Z,101720.00
2023-01-21T14:43:31.681Z,101722.00
2023-01-21T14:46:00.261Z,101714.00
2023-01-21T14:48:28.981Z,101718.00
2023-01-21T14:51:09.914Z,101705.00
2023-01-21T14:53:47.779Z,101718.00
2023-01-21T14:56:24.792Z,101708.00
2023-01-21T14:58:52.582Z,101704.00
2023-01-21T15:01:39.721Z,101699.00
2023-01-21T15:04:15.779Z,101688.00
2023-01-21T15:06:43.761Z,101708.00
2023-01-21T15:09:18.154Z,101710.00
2023-01-21T15:11:45.925Z,101713.00
2023-01-21T15:14:26.661Z,101710.00
2023-01-21T15:16:54.565Z,101702.00
2023-01-21T15:22:19.257Z,101720.00
2023-01-21T15:25:16.741Z,101706.00
2023-01-21T15:28:03.331Z,101705.00
2023-01-21T15:30:39.486Z,101695.00
2023-01-21T15:33:13.477Z,101700.00
2023-01-21T15:35:41.964Z,101700.00
2023-01-21T15:38:10.677Z,101696.00
2023-01-21T15:40:42.469Z,101697.00
2023-01-21T15:43:18.974Z,101700.00
2023-01-21T15:45:59.478Z,101702.00
2023-01-21T15:48:40.253Z,101702.00
2023-01-21T15:51:15.609Z,101700.00
2023-01-21T15:54:12.675Z,101706.00
2023-01-21T15:56:49.400Z,101700.00
2023-01-21T15:59:23.244Z,101689.00
2023-01-21T16:02:01.385Z,101687.00
2023-01-21T16:04:38.598Z,101689.00
2023-01-21T16:07:25.249Z,101695.00
2023-01-21T16:09:53.383Z,101695.00
2023-01-21T16:12:21.108Z,101686.00
2023-01-21T16:14:52.789Z,101692.00
2023-01-21T16:17:22.814Z,101691.00
2023-01-21T16:19:50.776Z,101687.00
2023-01-21T16:22:20.171Z,101690.00
2023-01-21T16:24:48.933Z,101683.00
2023-01-21T16:27:17.610Z,101688.00
2023-01-21T16:29:45.248Z,101689.00
2023-01-21T16:32:16.817Z,101689.00
2023-01-21T16:34:44.762Z,101689.00
2023-01-21T16:37:19.986Z,101698.00
2023-01-21T16:39:47.831Z,101689.00
2023-01-21T16:42:33.903Z,101705.00
2023-01-21T16:45:09.112Z,101697.00
2023-01-21T16:47:37.280Z,101700.00
2023-01-21T16:50:05.837Z,101696.00
2023-01-21T16:52:33.491Z,101688.00
2023-01-21T16:55:01.229Z,101686.00
2023-01-21T16:57:31.770Z,101679.00
2023-01-21T17:00:02.691Z,101683.00
2023-01-21T17:02:31.759Z,101685.00
2023-01-21T17:05:00.367Z,101680.00
2023-01-21T17:07:31.010Z,101685.00
2023-01-21T17:10:02.763Z,101674.00
2023-01-21T17:12:30.624Z,101677.00
2023-01-21T17:15:02.327Z,101683.00
2023-01-21T17:17:34.724Z,101679.00
2023-01-21T17:20:04.878Z,101681.00
2023-01-21T17:22:33.698Z,101675.00
2023-01-21T17:25:11.328Z,101675.00
2023-01-21T17:27:39.651Z,101681.00
2023-01-21T17:30:17.783Z,101670.00
2023-01-21T17:32:52.132Z,101657.00
2023-01-21T17:35:23.171Z,101645.00
2023-01-21T17:37:58.028Z,101658.00
2023-01-21T17:40:38.015Z,101662.00
2023-01-21T17:43:19.730Z,101668.00
2023-01-21T17:45:50.086Z,101657.00
2023-01-21T17:48:23.411Z,101677.00
2023-01-21T17:50:51.220Z,101673.00
2023-01-21T17:53:23.284Z,101682.00
2023-01-21T17:56:04.819Z,101672.00
2023-01-21T17:58:32.487Z,101669.00
2023-01-21T18:01:03.807Z,101672.00
2023-01-21T18:03:31.371Z,101678.00
2023-01-21T18:05:59.077Z,101667.00
2023-01-21T18:08:26.835Z,101654.00
2023-01-21T18:10:54.527Z,101665.00
2023-01-21T18:13:22.637Z,101662.00
2023-01-21T18:15:51.932Z,101662.00
2023-01-21T18:18:21.193Z,101655.00
2023-01-21T18:20:48.922Z,101647.00
2023-01-21T18:23:19.909Z,101636.00
2023-01-21T18:25:53.835Z,101641.00
2023-01-21T18:28:22.420Z,101638.00
2023-01-21T18:30:50.643Z,101638.00
2023-01-21T18:33:18.423Z,101633.00
2023-01-21T18:35:47.440Z,101642.00
2023-01-21T18:38:21.621Z,101630.00
2023-01-21T18:40:50.349Z,101626.00
2023-01-21T18:43:18.818Z,101647.00
2023-01-21T18:45:46.344Z,101653.00
2023-01-21T18:48:15.181Z,101663.00
2023-01-21T18:50:42.980Z,101648.00
2023-01-21T18:53:10.583Z,101659.00
2023-01-21T18:55:41.107Z,101657.00
2023-01-21T18:58:12.295Z,101655.00
2023-01-21T19:00:40.113Z,101646.00
2023-01-21T19:03:07.966Z,101636.00
2023-01-21T19:05:37.873Z,101643.00
2023-01-21T19:08:12.861Z,101632.00
2023-01-21T19:10:40.449Z,101626.00
2023-01-21T19:13:08.567Z,101629.00
2023-01-21T19:15:36.416Z,101622.00
2023-01-21T19:18:08.919Z,101618.00
2023-01-21T19:20:40.405Z,101608.00
2023-01-21T19:23:18.225Z,101609.00
2023-01-21T19:25:48.484Z,101614.00
2023-01-21T19:28:16.340Z,101619.00
2023-01-21T19:30:48.209Z,101619.00
2023-01-21T19:33:18.885Z,101618.00
2023-01-21T19:35:46.755Z,101615.00
2023-01-21T19:38:16.529Z,101616.00
2023-01-21T19:40:44.362Z,101626.00
2023-01-21T19:43:16.174Z,101628.00
2023-01-21T19:45:44.304Z,101634.00
2023-01-21T19:48:12.988Z,101636.00
2023-01-21T19:50:40.865Z,101643.00
2023-01-21T19:53:09.702Z,101638.00
2023-01-21T19:55:42.726Z,101632.00
2023-01-21T19:58:15.677Z,101640.00
2023-01-21T20:00:43.741Z,101631.00
2023-01-21T20:03:12.364Z,101631.00
2023-01-21T20:05:40.260Z,101628.00
2023-01-21T20:08:15.648Z,101630.00
2023-01-21T20:10:44.130Z,101631.00
2023-01-21T20:13:12.608Z,101641.00
2023-01-21T20:15:41.088Z,101627.00
2023-01-21T20:18:11.641Z,101637.00
2023-01-21T20:20:39.337Z,101621.00
2023-01-21T20:23:09.620Z,101629.00
2023-01-21T20:25:37.884Z,101633.00
2023-01-21T20:28:18.152Z,101634.00
2023-01-21T20:30:46.251Z,101626.00
2023-01-21T20:33:14.920Z,101635.00
2023-01-21T20:35:42.867Z,101620.00
2023-01-21T20:38:11.603Z,101627.00
2023-01-21T20:40:39.203Z,101608.00
2023-01-21T20:43:08.091Z,101613.00
2023-01-21T20:45:40.148Z,101608.00
2023-01-21T20:48:08.074Z,101601.00
2023-01-21T20:50:38.703Z,101605.00
2023-01-21T20:53:08.796Z,101600.00
2023-01-21T20:55:36.519Z,101597.00
2023-01-21T20:58:04.722Z,101591.00
2023-01-21T21:00:35.964Z,101591.00
2023-01-21T21:03:04.011Z,101596.00
2023-01-21T21:05:34.530Z,101592.00
2023-01-21T21:08:02.457Z,101604.00
2023-01-21T21:10:34.796Z,101595.00
2023-01-21T21:13:02.876Z,101602.00
2023-01-21T21:15:30.972Z,101587.00
2023-01-21T21:18:02.933Z,101602.00
2023-01-21T21:20:33.572Z,101602.00
2023-01-21T21:23:01.566Z,101602.00
2023-01-21T21:25:30.160Z,101604.00
2023-01-21T21:27:58.032Z,101601.00
2023-01-21T21:30:27.072Z,101615.00
2023-01-21T21:32:55.572Z,101607.00
2023-01-21T21:35:27.908Z,101618.00
2023-01-21T21:37:58.136Z,101616.00
2023-01-21T21:40:27.109Z,101605.00
2023-01-21T21:43:13.448Z,101606.00
2023-01-21T21:46:01.073Z,101616.00
2023-01-21T21:48:46.156Z,101617.00
2023-01-21T21:51:14.872Z,101613.00
2023-01-21T21:53:42.600Z,101620.00
2023-01-21T21:56:11.276Z,101614.00
2023-01-21T21:58:41.321Z,101616.00
2023-01-21T22:01:15.335Z,101616.00
2023-01-21T22:03:43.436Z,101616.00
2023-01-21T22:06:11.268Z,101608.00
2023-01-21T22:08:40.212Z,101608.00
2023-01-21T22:11:13.327Z,101620.00
2023-01-21T22:13:42.249Z,101620.00
2023-01-21T22:16:14.099Z,101621.00
2023-01-21T22:18:41.814Z,101612.00
2023-01-21T22:21:19.763Z,101613.00
2023-01-21T22:23:47.971Z,101614.00
2023-01-21T22:26:17.171Z,101617.00
2023-01-21T22:28:45.097Z,101622.00
2023-01-21T22:31:17.487Z,101617.00
2023-01-21T22:33:45.178Z,101626.00
2023-01-21T22:36:13.597Z,101626.00
2023-01-21T22:38:41.406Z,101616.00
2023-01-21T22:41:09.698Z,101625.00
2023-01-21T22:43:38.606Z,101620.00
2023-01-21T22:46:06.220Z,101619.00
2023-01-21T22:48:34.247Z,101624.00
2023-01-21T22:51:04.843Z,101627.00
2023-01-21T22:53:33.233Z,101633.00
2023-01-21T22:56:02.063Z,101627.00
2023-01-21T22:58:30.600Z,101626.00
2023-01-21T23:00:58.627Z,101618.00
2023-01-21T23:03:28.915Z,101622.00
2023-01-21T23:06:09.255Z,101615.00
2023-01-21T23:08:37.744Z,101605.00
2023-01-21T23:11:07.087Z,101619.00
2023-01-21T23:13:37.505Z,101621.00
2023-01-21T23:16:06.757Z,101612.00
2023-01-21T23:18:36.336Z,101599.00
2023-01-21T23:21:07.908Z,101608.00
2023-01-21T23:23:37.939Z,101602.00
2023-01-21T23:26:06.039Z,101599.00
2023-01-21T23:28:36.977Z,101604.00
2023-01-21T23:31:09.205Z,101615.00
2023-01-21T23:33:37.148Z,101604.00
2023-01-21T23:36:05.043Z,101603.00
2023-01-21T23:38:32.841Z,101605.00
2023-01-21T23:41:06.022Z,101617.00
2023-01-21T23:43:33.795Z,101616.00
2023-01-21T23:46:01.654Z,101608.00
2023-01-21T23:48:29.418Z,101605.00
2023-01-21T23:51:07.419Z,101604.00
2023-01-21T23:53:35.088Z,101609.00
2023-01-21T23:56:06.553Z,101601.00
2023-01-21T23:58:34.293Z,101615.00
